Time;durP1;ratioP1;P1;durP2;ratioP2;P2;SDS_P1;SDS_P2;PMS_P1;PMS_P2;Temp;Humidity;BMP_temperature;BMP_pressure;BME280_temperature;BME280_humidity;BME280_pressure;Samples;Min_cycle;Max_cycle;Signal;HPM_P1;HPM_P2
2022/11/20 00:03:59;;;;;;;37.95;20.15;;;;;;;-3.26;70.93;100189.88;10116160;29;20079;-79
2022/11/20 00:09:05;;;;;;;30.63;18.00;;;;;;;-3.78;71.29;100193.84;10127358;29;20045;-80
2022/11/20 00:14:07;;;;;;;34.40;19.63;;;;;;;-3.84;72.30;100186.97;10111281;29;20049;-78
2022/11/20 00:19:10;;;;;;;31.13;19.08;;;;;;;-3.65;72.11;100185.63;10115592;29;20127;-79
2022/11/20 00:24:15;;;;;;;39.00;20.65;;;;;;;-3.57;71.61;100185.41;10125538;29;20075;-77
2022/11/20 00:29:17;;;;;;;41.42;21.27;;;;;;;-3.55;71.33;100172.25;10124119;29;20113;-77
2022/11/20 00:34:21;;;;;;;35.08;19.77;;;;;;;-3.76;70.82;100169.25;10116353;29;20064;-79
2022/11/20 00:39:25;;;;;;;37.35;20.05;;;;;;;-3.75;70.99;100172.78;10106493;29;20170;-77
2022/11/20 00:44:28;;;;;;;32.63;19.05;;;;;;;-3.72;70.99;100164.81;10116385;29;20128;-78
2022/11/20 00:49:32;;;;;;;30.60;18.35;;;;;;;-3.69;70.92;100165.59;10104936;29;20438;-79
2022/11/20 00:54:36;;;;;;;35.80;17.95;;;;;;;-3.64;70.73;100157.59;10121445;29;20037;-79
2022/11/20 00:59:38;;;;;;;28.13;16.40;;;;;;;-3.58;70.49;100165.31;10107289;29;20124;-78
2022/11/20 01:04:41;;;;;;;27.75;16.20;;;;;;;-3.65;70.19;100167.25;10120138;29;20119;-76
2022/11/20 01:09:45;;;;;;;31.15;17.52;;;;;;;-3.64;69.99;100162.84;10108753;29;20478;-79
2022/11/20 01:14:48;;;;;;;36.03;18.35;;;;;;;-3.57;69.97;100159.13;10125211;29;20150;-78
2022/11/20 01:19:51;;;;;;;33.97;18.50;;;;;;;-3.54;69.92;100159.06;10120836;29;20443;-79
2022/11/20 01:24:55;;;;;;;34.90;19.63;;;;;;;-3.58;69.85;100165.31;10123080;29;20123;-79
2022/11/20 01:29:58;;;;;;;29.15;16.75;;;;;;;-3.67;69.48;100160.31;10126983;29;20128;-78
2022/11/20 01:35:03;;;;;;;32.20;18.17;;;;;;;-3.69;69.27;100156.84;10126880;29;20043;-77
2022/11/20 01:40:08;;;;;;;34.05;18.08;;;;;;;-3.70;69.69;100152.47;10130727;29;20426;-79
2022/11/20 01:45:53;;;;;;;33.22;19.45;;;;;;;-3.68;69.94;100145.44;10113629;29;20085;-77
2022/11/20 01:50:58;;;;;;;32.63;18.05;;;;;;;-3.73;69.88;100149.94;10119161;29;20587;-79
2022/11/20 01:56:06;;;;;;;35.22;18.13;;;;;;;-3.91;70.00;100146.91;10112519;29;20115;-78
2022/11/20 02:01:09;;;;;;;32.38;18.13;;;;;;;-3.93;70.19;100145.22;10177463;29;20125;-77
2022/11/20 02:06:18;;;;;;;32.88;19.05;;;;;;;-4.10;70.08;100127.25;10154836;29;20056;-77
2022/11/20 02:11:22;;;;;;;32.72;17.65;;;;;;;-4.11;70.26;100139.53;10114358;29;20135;-78
2022/11/20 02:16:28;;;;;;;31.95;16.75;;;;;;;-4.13;69.87;100130.81;10131743;29;20184;-78
2022/11/20 02:21:37;;;;;;;29.65;16.85;;;;;;;-4.16;69.28;100130.91;10124563;29;20485;-78
2022/11/20 02:26:48;;;;;;;34.22;18.40;;;;;;;-4.16;69.48;100127.44;10135046;29;20075;-78
2022/11/20 02:31:51;;;;;;;35.25;19.10;;;;;;;-4.15;69.35;100121.28;10130982;29;20056;-78
2022/11/20 02:36:54;;;;;;;35.60;19.02;;;;;;;-4.13;69.83;100114.22;10124240;29;20060;-78
2022/11/20 02:41:58;;;;;;;32.40;17.65;;;;;;;-4.29;69.62;100108.50;10112806;29;20116;-78
2022/11/20 02:47:01;;;;;;;33.92;17.95;;;;;;;-4.36;69.46;100107.78;10128911;29;20083;-76
2022/11/20 02:52:04;;;;;;;30.48;18.38;;;;;;;-4.37;69.54;100100.81;10115926;29;20105;-77
2022/11/20 02:57:08;;;;;;;32.90;18.15;;;;;;;-4.27;69.29;100095.34;10118795;29;20103;-77
2022/11/20 03:02:11;;;;;;;30.10;17.35;;;;;;;-4.50;69.09;100098.50;10141746;29;20055;-77
2022/11/20 03:07:14;;;;;;;32.70;17.75;;;;;;;-4.76;70.29;100090.34;10128167;29;20498;-77
2022/11/20 03:12:18;;;;;;;37.60;19.25;;;;;;;-4.66;70.40;100082.28;10124436;29;20128;-77
2022/11/20 03:17:21;;;;;;;31.30;18.00;;;;;;;-4.60;70.50;100080.38;10114246;29;20107;-77
2022/11/20 03:22:24;;;;;;;33.40;17.95;;;;;;;-4.52;70.00;100077.59;10124671;29;20132;-77
2022/11/20 03:27:28;;;;;;;30.58;17.52;;;;;;;-4.49;69.87;100072.28;10115393;29;20071;-77
2022/11/20 03:32:31;;;;;;;34.40;18.30;;;;;;;-4.44;69.28;100082.63;10122909;29;20056;-77
2022/11/20 03:37:33;;;;;;;32.05;16.50;;;;;;;-4.50;68.83;100067.91;10118143;29;20123;-77
2022/11/20 03:42:46;;;;;;;31.83;16.35;;;;;;;-4.64;69.33;100067.38;10107107;29;20127;-77
2022/11/20 03:47:49;;;;;;;32.95;17.50;;;;;;;-4.73;69.53;100067.59;10110566;29;20128;-77
2022/11/20 03:52:52;;;;;;;32.80;16.13;;;;;;;-4.64;69.39;100064.75;10111294;29;20148;-77
2022/11/20 03:57:56;;;;;;;25.50;15.00;;;;;;;-4.55;69.59;100067.19;10127911;29;20083;-77
2022/11/20 04:02:59;;;;;;;28.02;16.02;;;;;;;-4.60;69.49;100061.19;10121514;29;20047;-77
2022/11/20 04:08:02;;;;;;;27.73;16.10;;;;;;;-4.72;69.59;100067.56;10117557;29;20123;-77
2022/11/20 04:13:06;;;;;;;28.98;15.57;;;;;;;-4.99;69.67;100071.66;10131596;29;20108;-78
2022/11/20 04:18:09;;;;;;;28.25;14.35;;;;;;;-5.42;71.14;100088.28;10125048;29;20060;-78
2022/11/20 04:23:12;;;;;;;25.08;13.63;;;;;;;-5.22;71.56;100078.25;10117848;29;20123;-79
2022/11/20 04:28:16;;;;;;;30.75;15.95;;;;;;;-4.97;71.00;100075.97;10124603;29;20057;-77
2022/11/20 04:33:19;;;;;;;27.73;14.80;;;;;;;-4.81;70.71;100073.88;10113969;29;20044;-77
2022/11/20 04:38:22;;;;;;;24.05;13.88;;;;;;;-4.89;70.49;100067.09;10106102;29;20048;-77
2022/11/20 04:43:26;;;;;;;28.25;14.70;;;;;;;-4.79;70.28;100068.59;10129017;29;20485;-78
2022/11/20 04:48:30;;;;;;;27.95;15.05;;;;;;;-4.66;70.13;100063.94;10122366;29;20051;-78
2022/11/20 04:53:33;;;;;;;27.23;14.30;;;;;;;-4.58;69.66;100057.63;10120068;29;20081;-77
2022/11/20 04:58:38;;;;;;;23.25;13.30;;;;;;;-4.52;69.24;100060.09;10108684;29;20562;-78
2022/11/20 05:03:41;;;;;;;27.23;15.45;;;;;;;-4.45;69.64;100057.31;10114816;29;20139;-78
2022/11/20 05:08:44;;;;;;;30.92;15.38;;;;;;;-4.47;69.71;100061.72;10128861;29;20055;-78
2022/11/20 05:13:49;;;;;;;27.30;14.45;;;;;;;-4.42;69.96;100057.22;10112395;29;20135;-78
2022/11/20 05:18:54;;;;;;;31.45;14.68;;;;;;;-4.47;69.64;100064.34;10116123;29;20048;-78
2022/11/20 05:23:56;;;;;;;27.65;14.48;;;;;;;-4.54;70.19;100066.28;10113254;29;20056;-78
2022/11/20 05:29:00;;;;;;;25.90;13.80;;;;;;;-4.53;69.58;100067.97;10115862;29;20123;-78
2022/11/20 05:34:03;;;;;;;26.02;13.40;;;;;;;-4.59;69.87;100060.28;10109978;29;20048;-78
2022/11/20 05:39:06;;;;;;;26.60;14.40;;;;;;;-4.63;69.88;100056.88;10109251;29;20087;-78
2022/11/20 05:44:12;;;;;;;26.15;14.55;;;;;;;-4.64;70.42;100064.75;10130047;29;20044;-78
2022/11/20 05:49:15;;;;;;;27.33;14.73;;;;;;;-4.67;70.40;100049.97;10104370;29;20041;-78
2022/11/20 05:54:18;;;;;;;29.05;14.85;;;;;;;-4.65;70.10;100044.69;10116218;29;20041;-78
2022/11/20 05:59:22;;;;;;;26.88;14.50;;;;;;;-4.68;69.87;100044.78;10122536;29;20059;-78
2022/11/20 06:04:26;;;;;;;27.13;14.50;;;;;;;-4.73;69.51;100034.38;10101366;29;20052;-77
2022/11/20 06:09:28;;;;;;;30.88;14.00;;;;;;;-4.78;69.92;100025.78;10114608;29;20498;-79
2022/11/20 06:14:33;;;;;;;24.70;13.73;;;;;;;-4.70;70.10;100033.47;10113098;29;20119;-77
2022/11/20 06:19:35;;;;;;;25.23;14.20;;;;;;;-4.65;70.19;100049.94;10114345;29;20128;-77
2022/11/20 06:24:38;;;;;;;28.25;14.65;;;;;;;-4.68;70.20;100048.25;10118819;29;20055;-76
2022/11/20 06:29:42;;;;;;;26.25;14.05;;;;;;;-4.75;70.41;100037.03;10131429;29;20413;-76
2022/11/20 06:34:45;;;;;;;29.20;14.15;;;;;;;-4.80;70.59;100031.06;10108945;29;20517;-77
2022/11/20 06:39:48;;;;;;;27.23;14.90;;;;;;;-4.79;70.59;100040.63;10108558;29;20092;-76
2022/11/20 06:44:52;;;;;;;24.90;13.60;;;;;;;-4.84;70.60;100037.25;10118010;29;20471;-78
2022/11/20 06:49:55;;;;;;;27.65;15.48;;;;;;;-4.80;70.82;100038.94;10132268;29;20055;-77
2022/11/20 06:54:57;;;;;;;33.67;15.82;;;;;;;-4.76;70.42;100037.94;10123109;29;20418;-76
2022/11/20 07:00:01;;;;;;;30.40;14.93;;;;;;;-4.81;70.14;100041.56;10135808;29;20148;-77
2022/11/20 07:05:05;;;;;;;33.67;15.02;;;;;;;-4.72;70.30;100048.34;10139446;29;20067;-76
2022/11/20 07:10:08;;;;;;;13.73;7.40;;;;;;;-4.58;72.03;100052.38;10114762;29;20085;-78
2022/11/20 07:15:12;;;;;;;70.13;34.63;;;;;;;-3.15;74.63;100047.66;10118076;29;20079;-78
2022/11/20 07:20:16;;;;;;;17.02;13.48;;;;;;;-2.22;72.46;100046.47;10130152;29;20084;-77
2022/11/20 07:25:19;;;;;;;17.95;12.35;;;;;;;-2.04;67.74;100048.47;10126788;29;20119;-78
2022/11/20 07:30:23;;;;;;;19.27;12.93;;;;;;;-2.76;66.17;100053.47;10112039;29;20151;-78
2022/11/20 07:35:26;;;;;;;23.17;13.45;;;;;;;-3.29;65.25;100051.56;10114960;29;20432;-80
2022/11/20 07:40:28;;;;;;;27.02;14.65;;;;;;;-3.46;65.91;100053.81;10120666;29;20103;-79
2022/11/20 07:45:33;;;;;;;23.95;13.75;;;;;;;-3.30;66.00;100057.72;10113451;29;20108;-79
2022/11/20 07:50:35;;;;;;;22.58;13.63;;;;;;;-2.97;65.68;100044.47;10131356;29;20056;-80
2022/11/20 07:55:38;;;;;;;24.70;13.65;;;;;;;-3.14;65.36;100046.75;10120759;29;20045;-77
2022/11/20 08:00:42;;;;;;;26.85;13.85;;;;;;;-3.49;67.29;100057.38;10132141;29;20057;-78
2022/11/20 08:05:45;;;;;;;33.25;16.17;;;;;;;-3.54;69.46;100042.66;10114677;29;20041;-78
2022/11/20 08:10:48;;;;;;;33.55;15.85;;;;;;;-3.65;70.16;100041.22;10131273;29;20045;-77
2022/11/20 08:15:52;;;;;;;33.58;13.77;;;;;;;-3.89;73.41;100039.28;10144252;29;20041;-79
2022/11/20 08:20:55;;;;;;;41.88;17.50;;;;;;;-3.32;76.21;100024.50;10130774;29;20061;-76
2022/11/20 08:25:58;;;;;;;39.78;18.35;;;;;;;-2.20;73.81;100024.44;10126755;29;20533;-78
2022/11/20 08:31:03;;;;;;;39.80;17.63;;;;;;;-1.06;70.28;100012.41;10107161;29;20049;-78
2022/11/20 08:36:07;;;;;;;47.47;20.67;;;;;;;-0.55;67.72;100025.31;10121089;29;20041;-78
2022/11/20 08:41:25;;;;;;;53.28;24.33;;;;;;;-0.20;65.61;100035.31;10114757;29;20136;-78
2022/11/20 08:46:34;;;;;;;57.92;24.25;;;;;;;1.00;64.69;100021.13;10111583;29;20053;-78
2022/11/20 08:51:37;;;;;;;62.60;25.83;;;;;;;1.32;62.44;100023.16;10123727;29;20045;-79
2022/11/20 08:56:40;;;;;;;42.40;19.88;;;;;;;2.20;59.65;100028.47;10114503;29;20417;-77
2022/11/20 09:01:44;;;;;;;35.58;17.80;;;;;;;1.48;58.92;100035.59;10105497;29;20125;-79
2022/11/20 09:06:50;;;;;;;33.28;19.42;;;;;;;1.09;62.25;100037.50;10116872;29;20079;-79
2022/11/20 09:11:53;;;;;;;36.55;18.00;;;;;;;0.85;62.17;100043.03;10111198;29;20063;-78
2022/11/20 09:16:57;;;;;;;40.38;19.95;;;;;;;1.05;62.47;100037.66;10107861;29;20112;-80
2022/11/20 09:22:00;;;;;;;38.30;18.65;;;;;;;0.67;63.42;100034.13;10134873;29;20111;-77
2022/11/20 09:27:04;;;;;;;30.60;16.45;;;;;;;-0.19;65.81;100031.75;10114736;29;20139;-76
2022/11/20 09:32:09;;;;;;;29.40;16.58;;;;;;;-0.38;68.15;100031.69;10112070;29;20052;-75
2022/11/20 09:37:11;;;;;;;28.60;15.10;;;;;;;-0.39;68.47;100035.22;10125995;29;20064;-79
2022/11/20 09:42:33;;;;;;;27.38;14.10;;;;;;;-0.67;69.25;100033.72;10117370;29;20127;-78
2022/11/20 09:47:52;;;;;;;23.93;12.30;;;;;;;-0.94;70.26;100030.38;10110959;29;20560;-79
2022/11/20 09:53:07;;;;;;;24.23;12.00;;;;;;;-1.07;70.45;100015.94;10109795;29;20637;-77
2022/11/20 09:58:18;;;;;;;17.05;8.50;;;;;;;-1.32;71.08;99993.19;10110820;29;20133;-78
2022/11/20 10:03:34;;;;;;;18.65;9.35;;;;;;;-1.83;72.43;99972.28;10107399;29;20048;-78
2022/11/20 10:08:44;;;;;;;18.00;9.85;;;;;;;-1.69;73.86;99984.03;10114029;29;20053;-77
2022/11/20 10:14:00;;;;;;;14.23;9.48;;;;;;;-1.49;73.26;99978.00;10114174;29;20079;-77
2022/11/20 10:19:19;;;;;;;19.05;10.18;;;;;;;-1.01;71.69;99981.47;10114944;29;20041;-79
2022/11/20 10:24:48;;;;;;;16.77;9.80;;;;;;;1.22;65.92;99978.63;10114082;29;20045;-78
2022/11/20 10:30:01;;;;;;;15.57;9.80;;;;;;;5.03;59.58;99963.31;10113441;29;20049;-79
2022/11/20 10:35:17;;;;;;;11.55;8.75;;;;;;;5.89;49.96;99943.41;10108416;29;20048;-79
2022/11/20 10:40:28;;;;;;;15.00;9.32;;;;;;;3.88;52.99;99958.97;10108903;29;20075;-79
2022/11/20 10:45:44;;;;;;;13.48;9.07;;;;;;;3.71;56.54;99963.47;10108737;29;20055;-78
2022/11/20 10:50:58;;;;;;;16.17;9.80;;;;;;;5.27;52.91;99952.03;10114971;29;20475;-77
2022/11/20 10:56:06;;;;;;;13.18;8.95;;;;;;;6.26;49.03;99927.56;10111290;29;20068;-77
2022/11/20 11:01:16;;;;;;;14.60;9.30;;;;;;;6.60;49.75;99920.66;10122294;29;20220;-76
2022/11/20 11:06:29;;;;;;;15.73;9.93;;;;;;;9.48;44.96;99916.16;10113444;29;20041;-77
2022/11/20 11:11:34;;;;;;;12.43;9.05;;;;;;;9.36;41.80;99915.34;10115034;29;20080;-78
2022/11/20 11:16:50;;;;;;;12.57;9.63;;;;;;;9.78;41.58;99920.75;10118298;29;20503;-78
2022/11/20 11:21:56;;;;;;;11.55;8.95;;;;;;;11.48;39.72;99916.47;10119733;29;20467;-79
2022/11/20 11:27:04;;;;;;;13.68;10.65;;;;;;;10.41;39.58;99895.72;10106677;29;20037;-80
2022/11/20 11:32:08;;;;;;;13.93;10.00;;;;;;;10.42;38.94;99881.28;10105569;29;20053;-79
2022/11/20 11:37:18;;;;;;;13.90;8.63;;;;;;;10.26;39.37;99898.78;10108654;29;20049;-79
2022/11/20 11:42:21;;;;;;;8.75;6.63;;;;;;;9.03;38.78;99887.69;10117097;29;20081;-79
2022/11/20 11:47:26;;;;;;;7.68;5.72;;;;;;;7.17;40.54;99898.69;10116400;29;20071;-77
2022/11/20 11:52:37;;;;;;;9.68;6.65;;;;;;;5.61;44.83;99884.00;10112065;29;20102;-78
2022/11/20 11:57:48;;;;;;;8.18;6.30;;;;;;;7.73;42.14;99873.97;10119763;29;20129;-79
2022/11/20 12:03:01;;;;;;;7.93;6.30;;;;;;;9.15;38.38;99874.25;10109588;29;20076;-79
2022/11/20 12:08:11;;;;;;;7.88;5.97;;;;;;;8.03;40.14;99857.34;10111340;29;20049;-79
2022/11/20 12:13:29;;;;;;;6.50;5.45;;;;;;;7.39;42.23;99870.38;10112403;29;20507;-76
2022/11/20 12:18:32;;;;;;;6.43;5.00;;;;;;;7.42;41.04;99856.78;10115088;29;20065;-76
2022/11/20 12:23:50;;;;;;;6.72;5.43;;;;;;;6.12;43.23;99860.03;10116512;29;20045;-79
2022/11/20 12:29:03;;;;;;;7.03;4.88;;;;;;;4.55;45.61;99845.75;10111131;29;20056;-76
2022/11/20 12:34:15;;;;;;;;;;;;;;;4.22;47.44;99853.22;10112689;29;20549;-79
2022/11/20 12:39:41;;;;;;;6.93;4.95;;;;;;;4.61;47.44;99842.69;10074511;29;19939;-76
2022/11/20 12:45:11;;;;;;;7.78;4.63;;;;;;;5.53;45.33;99834.88;10094530;29;20053;-79
2022/11/20 12:50:23;;;;;;;8.63;6.00;;;;;;;5.19;45.82;99832.69;10077855;29;20431;-79
2022/11/20 12:55:48;;;;;;;9.77;5.00;;;;;;;5.03;45.96;99840.00;10081618;29;20056;-80
2022/11/20 13:00:58;;;;;;;8.45;4.97;;;;;;;4.43;46.96;99835.06;10085478;29;20643;-80
2022/11/20 13:06:11;;;;;;;8.25;6.00;;;;;;;5.37;45.67;99835.91;10091407;29;20060;-79
2022/11/20 13:11:21;;;;;;;7.80;5.38;;;;;;;4.72;46.92;99823.38;10080466;29;20052;-81
2022/11/20 13:16:33;;;;;;;7.68;5.35;;;;;;;4.68;47.89;99821.00;10080360;29;20055;-79
2022/11/20 13:21:39;;;;;;;8.10;5.82;;;;;;;3.72;49.32;99818.22;10087866;29;20631;-80
2022/11/20 13:26:43;;;;;;;11.18;6.55;;;;;;;3.23;51.06;99813.22;10079021;29;20065;-81
2022/11/20 13:31:48;;;;;;;8.40;5.50;;;;;;;3.20;51.41;99800.13;10077624;29;20064;-81
2022/11/20 13:36:53;;;;;;;7.82;5.25;;;;;;;2.57;52.03;99801.16;10092266;29;20140;-80
2022/11/20 13:41:59;;;;;;;9.10;5.72;;;;;;;2.50;52.28;99800.63;10091761;29;20045;-81
2022/11/20 13:47:02;;;;;;;8.32;4.95;;;;;;;3.73;50.35;99788.06;10086743;29;20107;-81
2022/11/20 13:52:35;;;;;;;10.35;6.22;;;;;;;3.54;50.29;99775.06;10081309;29;20057;-81
2022/11/20 13:57:57;;;;;;;9.95;6.47;;;;;;;3.92;49.80;99762.03;10112375;29;20813;-79
2022/11/20 14:03:12;;;;;;;9.83;6.70;;;;;;;3.16;51.40;99759.66;10095586;29;20058;-81
2022/11/20 14:08:24;;;;;;;12.85;7.68;;;;;;;2.85;53.33;99750.00;10082961;29;20053;-81
2022/11/20 14:13:28;;;;;;;12.70;8.18;;;;;;;2.87;53.65;99741.97;10097908;29;20148;-80
2022/11/20 14:18:31;;;;;;;12.27;7.28;;;;;;;2.95;53.72;99743.22;10109264;29;20049;-79
2022/11/20 14:23:34;;;;;;;16.35;8.02;;;;;;;3.30;52.84;99728.78;10086544;29;20135;-78
2022/11/20 14:28:38;;;;;;;15.57;9.43;;;;;;;2.95;53.80;99726.44;10077942;29;20400;-80
2022/11/20 14:33:41;;;;;;;17.15;9.93;;;;;;;2.72;54.77;99709.25;10089047;29;20490;-81
2022/11/20 14:38:44;;;;;;;17.52;11.02;;;;;;;2.53;55.63;99714.75;10081772;29;20063;-80
2022/11/20 14:43:54;;;;;;;17.92;10.10;;;;;;;2.29;57.08;99715.22;10078055;29;20595;-80
2022/11/20 14:48:58;;;;;;;16.85;10.68;;;;;;;1.91;58.11;99704.13;10078617;29;20068;-79
2022/11/20 14:54:12;;;;;;;20.70;11.45;;;;;;;1.81;59.06;99697.63;10074824;29;20071;-79
2022/11/20 14:59:23;;;;;;;22.70;12.52;;;;;;;1.68;59.63;99692.19;10073912;29;20064;-76
2022/11/20 15:04:26;;;;;;;21.03;11.20;;;;;;;1.54;60.14;99695.59;10086170;29;20065;-79
2022/11/20 15:09:29;;;;;;;24.35;13.88;;;;;;;1.46;61.23;99696.00;10075152;29;20061;-78
2022/11/20 15:14:33;;;;;;;27.90;15.57;;;;;;;1.41;61.67;99687.44;10076207;29;20086;-78
2022/11/20 15:19:36;;;;;;;23.30;14.25;;;;;;;1.35;61.79;99686.94;10087606;29;20055;-79
2022/11/20 15:24:39;;;;;;;33.38;16.33;;;;;;;1.29;62.25;99680.19;10074532;29;20053;-78
2022/11/20 15:29:44;;;;;;;27.38;15.07;;;;;;;1.23;62.70;99670.75;10089190;29;20084;-79
2022/11/20 15:34:46;;;;;;;25.65;15.00;;;;;;;1.17;63.24;99665.81;10086677;29;20055;-79
2022/11/20 15:39:49;;;;;;;26.17;15.18;;;;;;;1.09;63.53;99661.88;10091568;29;20061;-78
2022/11/20 15:44:53;;;;;;;43.30;22.10;;;;;;;0.99;63.90;99657.06;10086454;29;20052;-78
2022/11/20 15:49:56;;;;;;;50.35;27.00;;;;;;;0.85;64.28;99654.31;10090016;29;20060;-77
2022/11/20 15:54:59;;;;;;;34.13;19.23;;;;;;;0.75;64.46;99661.00;10088828;29;20079;-77
2022/11/20 16:00:10;;;;;;;30.65;17.50;;;;;;;0.68;65.11;99657.81;10084637;29;20198;-79
2022/11/20 16:05:16;;;;;;;30.73;17.52;;;;;;;0.66;65.43;99653.53;10082320;29;21227;-77
2022/11/20 16:10:19;;;;;;;30.52;17.67;;;;;;;0.78;65.53;99655.56;10091022;29;20053;-79
2022/11/20 16:20:44;;;;;;;64.50;31.97;;;;;;;0.87;66.08;99639.19;10084419;29;20060;-80
2022/11/20 16:25:47;;;;;;;43.50;22.98;;;;;;;0.89;66.30;99616.19;10068181;29;20427;-80
2022/11/20 16:30:51;;;;;;;37.97;19.80;;;;;;;0.90;66.31;99603.81;10071305;29;20089;-80
2022/11/20 16:35:54;;;;;;;36.13;19.38;;;;;;;0.90;66.64;99604.66;10071843;29;20049;-80
2022/11/20 16:41:01;;;;;;;31.05;17.55;;;;;;;0.87;66.77;99607.47;10087512;29;20081;-77
2022/11/20 16:46:05;;;;;;;33.08;17.70;;;;;;;0.85;66.41;99585.56;10088572;29;20057;-81
2022/11/20 16:51:10;;;;;;;30.50;17.58;;;;;;;0.63;67.59;99572.59;10080083;29;20052;-81
2022/11/20 16:56:16;;;;;;;29.40;15.75;;;;;;;0.67;67.78;99571.53;10080265;29;20128;-81
2022/11/20 17:01:21;;;;;;;29.60;16.58;;;;;;;0.74;67.85;99567.63;10079958;29;20097;-79
2022/11/20 17:06:26;;;;;;;32.80;18.02;;;;;;;0.76;67.88;99563.09;10084154;29;20206;-81
2022/11/20 17:11:29;;;;;;;30.52;17.20;;;;;;;0.70;68.13;99563.41;10075120;29;20173;-81
2022/11/20 17:16:34;;;;;;;35.30;17.40;;;;;;;0.68;68.48;99541.50;10074720;29;20049;-79
2022/11/20 17:21:38;;;;;;;40.72;22.35;;;;;;;0.66;68.92;99540.75;10075097;29;20056;-79
2022/11/20 17:26:42;;;;;;;25.30;15.88;;;;;;;0.60;68.82;99528.72;10076796;29;20037;-80
2022/11/20 17:31:47;;;;;;;27.67;16.33;;;;;;;0.50;69.20;99529.28;10094029;29;20053;-79
2022/11/20 17:36:50;;;;;;;29.77;15.20;;;;;;;0.62;68.93;99525.97;10075393;29;20063;-79
2022/11/20 17:47:11;;;;;;;43.10;23.08;;;;;;;0.42;68.90;99512.97;10088953;29;20507;-81
2022/11/20 17:52:14;;;;;;;37.47;20.08;;;;;;;0.47;68.91;99503.03;10083192;29;20054;-80
2022/11/20 18:02:38;;;;;;;34.70;17.58;;;;;;;0.53;68.90;99502.69;10076380;29;20048;-81
2022/11/20 18:07:41;;;;;;;24.45;13.57;;;;;;;0.53;68.49;99503.53;10061438;29;20089;-79
2022/11/20 18:12:44;;;;;;;28.05;14.35;;;;;;;0.57;68.56;99504.22;10069103;29;20045;-78
2022/11/20 18:17:48;;;;;;;24.00;15.27;;;;;;;0.51;68.68;99483.41;10089251;29;20064;-79
2022/11/20 18:22:51;;;;;;;24.38;13.02;;;;;;;0.37;68.74;99479.72;10094579;29;20049;-81
2022/11/20 18:27:55;;;;;;;31.40;16.33;;;;;;;0.25;68.93;99479.50;10063270;29;20059;-80
2022/11/20 18:32:59;;;;;;;23.15;12.60;;;;;;;0.30;68.79;99472.19;10066979;29;20068;-79
2022/11/20 18:38:02;;;;;;;23.50;12.68;;;;;;;0.30;68.75;99480.13;10081076;29;20110;-78
2022/11/20 18:48:27;;;;;;;66.07;24.63;;;;;;;0.29;68.69;99471.34;10090151;29;21607;-80
2022/11/20 18:53:30;;;;;;;40.15;17.88;;;;;;;0.35;68.57;99457.78;10097611;29;20049;-79
2022/11/20 18:58:33;;;;;;;32.72;17.60;;;;;;;0.26;68.93;99455.66;10085680;29;20131;-80
2022/11/20 19:03:37;;;;;;;28.58;14.70;;;;;;;0.28;69.56;99445.03;10089944;29;20059;-79
2022/11/20 19:08:40;;;;;;;28.70;14.73;;;;;;;0.02;71.80;99436.69;10114606;29;20094;-81
2022/11/20 19:13:43;;;;;;;35.70;17.55;;;;;;;-0.07;73.51;99431.88;10090864;29;20456;-78
2022/11/20 19:18:47;;;;;;;39.72;19.73;;;;;;;-0.19;75.00;99424.59;10081263;29;20097;-80
2022/11/20 19:23:51;;;;;;;31.50;16.45;;;;;;;-0.25;75.86;99414.34;10092569;29;20044;-80
2022/11/20 19:28:54;;;;;;;29.08;16.38;;;;;;;-0.32;76.42;99413.84;10084761;29;20045;-80
2022/11/20 19:34:00;;;;;;;34.25;16.90;;;;;;;-0.44;77.69;99399.47;10089527;29;20048;-81
2022/11/20 19:39:05;;;;;;;32.38;17.13;;;;;;;-0.41;78.28;99390.53;10095485;29;20052;-79
2022/11/20 19:44:10;;;;;;;39.42;17.88;;;;;;;-0.44;79.04;99388.91;10076756;29;20566;-80
2022/11/20 19:49:14;;;;;;;36.88;17.60;;;;;;;-0.38;79.25;99374.56;10094096;29;20049;-78
2022/11/20 19:54:18;;;;;;;69.50;28.50;;;;;;;-0.36;79.48;99373.53;10082492;29;20086;-79
2022/11/20 19:59:20;;;;;;;42.30;21.90;;;;;;;-0.38;80.19;99362.22;10086897;29;20056;-79
2022/11/20 20:04:25;;;;;;;39.42;19.13;;;;;;;-0.35;80.10;99353.31;10080200;29;20052;-80
2022/11/20 20:09:29;;;;;;;45.83;21.00;;;;;;;-0.33;80.60;99348.78;10086730;29;20652;-79
2022/11/20 20:14:33;;;;;;;40.63;20.77;;;;;;;-0.22;80.37;99343.81;10087162;29;20044;-80
2022/11/20 20:19:37;;;;;;;42.67;21.58;;;;;;;-0.20;80.55;99341.06;10092934;29;20075;-80
2022/11/20 20:24:40;;;;;;;36.22;19.17;;;;;;;-0.18;80.61;99332.13;10080676;29;20057;-81
2022/11/20 20:29:43;;;;;;;43.85;20.98;;;;;;;-0.27;80.95;99319.44;10083402;29;20162;-78
2022/11/20 20:34:47;;;;;;;47.50;21.92;;;;;;;-0.16;81.19;99309.16;10080313;29;20495;-81
2022/11/20 20:39:50;;;;;;;47.15;21.52;;;;;;;-0.13;81.31;99300.22;10071984;29;20049;-80
2022/11/20 20:45:09;;;;;;;48.35;23.90;;;;;;;-0.21;81.54;99303.28;10076161;29;20049;-80
2022/11/20 20:50:14;;;;;;;51.65;26.10;;;;;;;-0.29;82.15;99295.75;10078652;29;20140;-79
2022/11/20 20:55:17;;;;;;;49.70;23.83;;;;;;;-0.22;82.04;99291.03;10090462;29;20044;-79
2022/11/20 21:00:20;;;;;;;43.65;22.77;;;;;;;-0.19;82.18;99275.00;10074466;29;20052;-79
2022/11/20 21:05:24;;;;;;;49.10;24.63;;;;;;;-0.11;82.55;99274.56;10081550;29;20140;-79
2022/11/20 21:10:27;;;;;;;53.08;22.50;;;;;;;-0.09;82.64;99263.00;10074394;29;20057;-79
2022/11/20 21:15:30;;;;;;;44.45;20.80;;;;;;;-0.08;82.92;99254.16;10088885;29;20619;-79
2022/11/20 21:25:54;;;;;;;46.33;22.08;;;;;;;-0.02;83.15;99241.56;10092685;29;20116;-79
2022/11/20 21:31:03;;;;;;;41.28;21.00;;;;;;;-0.01;83.21;99233.53;10079422;29;20049;-80
2022/11/20 21:36:08;;;;;;;46.33;24.02;;;;;;;0.02;83.58;99228.09;10086337;29;20581;-80
2022/11/20 21:41:13;;;;;;;48.92;22.60;;;;;;;0.04;83.68;99218.28;10073836;29;20072;-80
2022/11/20 21:46:17;;;;;;;55.33;24.40;;;;;;;0.06;83.71;99216.44;10065579;29;21652;-78
2022/11/20 21:51:22;;;;;;;49.15;22.77;;;;;;;0.08;83.89;99208.41;10093196;29;20054;-77
2022/11/20 21:56:27;;;;;;;42.58;20.48;;;;;;;0.07;84.09;99204.91;10103107;29;20071;-76
2022/11/20 22:01:30;;;;;;;41.10;21.50;;;;;;;0.10;84.01;99217.09;10107391;29;20383;-76
2022/11/20 22:06:34;;;;;;;49.83;20.25;;;;;;;0.11;84.23;99202.94;10118722;29;20049;-76
2022/11/20 22:11:37;;;;;;;42.40;20.95;;;;;;;0.12;84.43;99199.38;10112635;29;20137;-76
2022/11/20 22:16:40;;;;;;;47.10;21.55;;;;;;;0.12;84.61;99200.22;10117917;29;20132;-78
2022/11/20 22:21:44;;;;;;;49.08;22.60;;;;;;;0.15;84.27;99196.56;10096477;29;20072;-76
2022/11/20 22:26:48;;;;;;;43.63;21.02;;;;;;;0.16;84.64;99200.91;10112970;29;20438;-78
2022/11/20 22:31:52;;;;;;;41.70;21.67;;;;;;;0.16;84.51;99212.34;10130876;29;20120;-77
2022/11/20 22:36:56;;;;;;;44.08;22.25;;;;;;;0.16;84.43;99201.78;10109986;29;20056;-77
2022/11/20 22:41:59;;;;;;;49.10;23.60;;;;;;;0.19;84.85;99216.56;10123720;29;20040;-78
2022/11/20 22:47:01;;;;;;;47.95;23.42;;;;;;;0.17;84.62;99223.75;10128344;29;20549;-78
2022/11/20 22:52:11;;;;;;;48.95;23.65;;;;;;;0.08;84.39;99219.84;10108971;29;20069;-78
2022/11/20 22:57:14;;;;;;;44.30;20.70;;;;;;;0.11;84.61;99230.22;10103033;29;20080;-78
2022/11/20 23:02:17;;;;;;;39.95;19.67;;;;;;;0.12;84.78;99231.91;10112651;29;20044;-78
2022/11/20 23:07:21;;;;;;;39.17;20.17;;;;;;;0.14;84.87;99242.41;10128820;29;20040;-78
2022/11/20 23:12:24;;;;;;;36.78;20.38;;;;;;;0.16;84.83;99251.06;10114910;29;20044;-79
2022/11/20 23:17:27;;;;;;;41.90;21.60;;;;;;;0.21;85.06;99248.19;10114402;29;20511;-80
2022/11/20 23:22:32;;;;;;;40.78;19.00;;;;;;;0.20;84.92;99251.78;10116239;29;20127;-80
2022/11/20 23:27:35;;;;;;;44.65;21.27;;;;;;;0.17;85.14;99247.50;10123086;29;20561;-80
2022/11/20 23:32:38;;;;;;;42.72;21.02;;;;;;;0.15;85.31;99249.38;10112495;29;20116;-79
2022/11/20 23:37:42;;;;;;;39.53;20.25;;;;;;;0.14;85.27;99255.63;10122779;29;20048;-81
2022/11/20 23:48:01;;;;;;;43.60;21.27;;;;;;;-0.01;84.87;99251.16;10126542;29;20117;-78